createdAt,value
2023-04-01T00:01:37.796Z,11.50
2023-04-01T00:04:08.220Z,15.43
2023-04-01T00:06:41.897Z,13.63
2023-04-01T00:09:10.660Z,14.00
2023-04-01T00:11:39.549Z,14.27
2023-04-01T00:14:08.269Z,14.85
2023-04-01T00:16:36.534Z,14.45
2023-04-01T00:19:05.083Z,14.35
2023-04-01T00:21:35.232Z,13.48
2023-04-01T00:24:04.036Z,12.80
2023-04-01T00:26:33.460Z,12.60
2023-04-01T00:29:02.619Z,12.48
2023-04-01T00:31:31.310Z,13.85
2023-04-01T00:34:00.049Z,12.88
2023-04-01T00:36:28.896Z,12.93
2023-04-01T00:39:00.003Z,15.80
2023-04-01T00:41:29.645Z,14.73
2023-04-01T00:44:20.261Z,16.48
2023-04-01T00:46:49.859Z,15.02
2023-04-01T00:49:20.989Z,15.50
2023-04-01T00:51:53.190Z,16.70
2023-04-01T00:54:24.725Z,16.60
2023-04-01T00:56:57.438Z,15.38
2023-04-01T00:59:28.649Z,14.38
2023-04-01T01:01:57.130Z,13.18
2023-04-01T01:04:28.800Z,15.02
2023-04-01T01:07:08.374Z,13.60
2023-04-01T01:09:48.666Z,15.23
2023-04-01T01:12:21.609Z,14.73
2023-04-01T01:15:04.047Z,15.70
2023-04-01T01:17:42.784Z,14.32
2023-04-01T01:20:50.678Z,18.15
2023-04-01T01:23:45.694Z,16.98
2023-04-01T01:26:41.586Z,19.70
2023-04-01T01:29:21.137Z,19.20
2023-04-01T01:32:00.724Z,21.13
2023-04-01T01:34:33.849Z,19.80
2023-04-01T01:37:08.036Z,24.73
2023-04-01T01:39:41.927Z,21.58
2023-04-01T01:42:14.001Z,20.88
2023-04-01T01:47:12.946Z,20.48
2023-04-01T01:49:43.308Z,20.25
2023-04-01T01:52:13.444Z,20.33
2023-04-01T01:54:50.028Z,20.08
2023-04-01T01:57:19.808Z,19.77
2023-04-01T01:59:49.805Z,19.00
2023-04-01T02:02:20.091Z,17.80
2023-04-01T02:04:49.156Z,18.67
2023-04-01T02:07:23.505Z,17.10
2023-04-01T02:09:53.009Z,17.38
2023-04-01T02:12:23.081Z,19.45
2023-04-01T02:14:56.176Z,17.33
2023-04-01T02:17:27.438Z,18.83
2023-04-01T02:20:00.365Z,16.80
2023-04-01T02:22:34.851Z,19.20
2023-04-01T02:25:08.077Z,19.33
2023-04-01T02:27:37.721Z,19.60
2023-04-01T02:30:07.239Z,18.45
2023-04-01T02:32:40.801Z,16.55
2023-04-01T02:35:12.887Z,15.45
2023-04-01T02:37:44.865Z,19.08
2023-04-01T02:40:15.747Z,14.30
2023-04-01T02:42:46.843Z,15.40
2023-04-01T02:45:16.925Z,17.05
2023-04-01T02:47:45.783Z,16.40
2023-04-01T02:50:14.490Z,17.83
2023-04-01T02:52:45.730Z,15.13
2023-04-01T02:55:14.014Z,16.08
2023-04-01T02:57:42.939Z,17.85
2023-04-01T03:00:17.765Z,19.52
2023-04-01T03:02:46.484Z,22.00
2023-04-01T03:05:16.541Z,21.95
2023-04-01T03:07:47.547Z,19.80
2023-04-01T03:10:17.134Z,21.83
2023-04-01T03:12:45.815Z,21.95
2023-04-01T03:15:15.873Z,19.33
2023-04-01T03:17:44.893Z,21.30
2023-04-01T03:20:14.114Z,22.42
2023-04-01T03:22:43.146Z,19.88
2023-04-01T03:25:13.031Z,18.00
2023-04-01T03:27:41.451Z,18.73
2023-04-01T03:30:10.796Z,17.20
2023-04-01T03:32:39.462Z,17.48
2023-04-01T03:35:08.511Z,16.50
2023-04-01T03:37:38.129Z,17.05
2023-04-01T03:40:14.699Z,16.35
2023-04-01T03:42:47.261Z,16.05
2023-04-01T03:45:17.405Z,16.85
2023-04-01T03:47:45.717Z,19.30
2023-04-01T03:50:14.766Z,18.38
2023-04-01T03:52:43.147Z,18.60
2023-04-01T03:55:11.819Z,19.65
2023-04-01T03:57:41.707Z,20.95
2023-04-01T04:00:11.084Z,19.35
2023-04-01T04:02:39.534Z,21.02
2023-04-01T04:05:13.812Z,18.45
2023-04-01T04:07:42.325Z,16.05
2023-04-01T04:10:11.411Z,15.57
2023-04-01T04:12:41.765Z,16.17
2023-04-01T04:15:11.061Z,15.82
2023-04-01T04:17:40.895Z,18.27
2023-04-01T04:20:10.717Z,19.02
2023-04-01T04:22:39.445Z,16.90
2023-04-01T04:25:10.854Z,16.02
2023-04-01T04:27:39.390Z,16.58
2023-04-01T04:30:10.468Z,17.15
2023-04-01T04:32:38.871Z,18.27
2023-04-01T04:35:08.247Z,18.25
2023-04-01T04:37:36.719Z,18.45
2023-04-01T04:40:06.247Z,19.20
2023-04-01T04:42:34.880Z,17.58
2023-04-01T04:45:03.256Z,16.70
2023-04-01T04:47:33.723Z,16.80
2023-04-01T04:50:02.581Z,21.20
2023-04-01T04:52:31.314Z,17.13
2023-04-01T04:55:00.532Z,17.13
2023-04-01T04:57:29.233Z,16.38
2023-04-01T04:59:59.397Z,16.05
2023-04-01T05:02:27.979Z,18.17
2023-04-01T05:04:59.161Z,15.50
2023-04-01T05:07:28.348Z,16.70
2023-04-01T05:09:56.688Z,18.08
2023-04-01T05:12:25.066Z,17.88
2023-04-01T05:14:53.424Z,22.58
2023-04-01T05:17:21.740Z,20.58
2023-04-01T05:19:51.262Z,21.10
2023-04-01T05:22:23.541Z,18.92
2023-04-01T05:24:52.099Z,19.35
2023-04-01T05:27:21.906Z,21.38
2023-04-01T05:29:51.556Z,20.65
2023-04-01T05:32:20.602Z,19.45
2023-04-01T05:34:52.231Z,19.23
2023-04-01T05:37:22.323Z,21.13
2023-04-01T05:39:50.748Z,21.63
2023-04-01T05:42:20.462Z,22.75
2023-04-01T05:44:48.798Z,21.33
2023-04-01T05:47:19.699Z,19.10
2023-04-01T05:49:50.607Z,19.58
2023-04-01T05:52:20.306Z,18.92
2023-04-01T05:54:50.349Z,22.02
2023-04-01T05:57:18.676Z,19.88
2023-04-01T05:59:47.362Z,25.25
2023-04-01T06:02:19.600Z,23.92
2023-04-01T06:04:48.602Z,19.02
2023-04-01T06:07:18.986Z,12.90
2023-04-01T06:09:49.586Z,15.52
2023-04-01T06:12:35.724Z,8.77
2023-04-01T06:15:19.680Z,8.80
2023-04-01T06:18:11.117Z,9.23
2023-04-01T06:20:48.269Z,8.70
2023-04-01T06:23:25.823Z,8.70
2023-04-01T06:26:08.570Z,9.20
2023-04-01T06:29:01.833Z,8.90
2023-04-01T06:31:44.527Z,8.98
2023-04-01T06:34:56.800Z,8.88
2023-04-01T06:37:40.156Z,9.07
2023-04-01T06:40:25.156Z,7.97
2023-04-01T06:43:08.549Z,7.40
2023-04-01T06:45:43.927Z,6.72
2023-04-01T06:48:36.201Z,10.48
2023-04-01T06:51:15.126Z,9.57
2023-04-01T06:53:51.447Z,11.10
2023-04-01T06:56:23.361Z,7.50
2023-04-01T06:58:56.327Z,10.00
2023-04-01T07:01:29.045Z,10.05
2023-04-01T07:04:01.427Z,8.82
2023-04-01T07:06:34.569Z,9.50
2023-04-01T07:09:08.308Z,11.55
2023-04-01T07:11:39.737Z,8.85
2023-04-01T07:14:18.728Z,9.15
2023-04-01T07:16:51.399Z,7.95
2023-04-01T07:19:33.741Z,9.88
2023-04-01T07:22:08.382Z,8.23
2023-04-01T07:24:40.094Z,7.15
2023-04-01T07:27:12.311Z,7.45
2023-04-01T07:29:42.363Z,6.47
2023-04-01T07:32:24.311Z,6.68
2023-04-01T07:37:42.467Z,8.15
2023-04-01T07:40:23.174Z,7.32
2023-04-01T07:43:10.506Z,5.25
2023-04-01T07:45:46.539Z,7.60
2023-04-01T07:48:25.665Z,5.40
2023-04-01T07:55:09.305Z,6.07
2023-04-01T07:57:45.752Z,5.40
2023-04-01T08:00:22.990Z,5.88
2023-04-01T08:03:09.331Z,7.10
2023-04-01T08:05:47.086Z,6.05
2023-04-01T08:08:21.855Z,6.22
2023-04-01T08:10:54.418Z,7.43
2023-04-01T08:13:31.664Z,6.95
2023-04-01T08:16:08.273Z,6.47
2023-04-01T08:18:46.632Z,7.70
2023-04-01T08:21:19.727Z,7.85
2023-04-01T08:23:50.623Z,6.95
2023-04-01T08:26:32.084Z,7.15
2023-04-01T08:29:06.689Z,6.22
2023-04-01T08:31:39.942Z,6.82
2023-04-01T08:34:17.509Z,6.30
2023-04-01T08:36:54.991Z,4.10
2023-04-01T08:39:31.860Z,5.80
2023-04-01T08:42:29.923Z,6.65
2023-04-01T08:45:18.407Z,5.90
2023-04-01T08:48:12.445Z,5.45
2023-04-01T08:51:10.349Z,4.88
2023-04-01T08:54:06.838Z,3.60
2023-04-01T08:56:42.552Z,7.72
2023-04-01T08:59:27.928Z,9.98
2023-04-01T09:02:20.542Z,6.35
2023-04-01T09:05:23.726Z,5.13
2023-04-01T09:08:02.751Z,5.50
2023-04-01T09:11:02.573Z,5.35
2023-04-01T09:13:58.169Z,8.02
2023-04-01T09:16:38.626Z,4.82
2023-04-01T09:19:30.852Z,5.30
2023-04-01T09:22:16.536Z,5.10
2023-04-01T09:25:17.109Z,5.38
2023-04-01T09:27:58.205Z,5.55
2023-04-01T09:31:10.546Z,8.70
2023-04-01T09:34:24.182Z,4.97
2023-04-01T09:37:06.178Z,6.38
2023-04-01T09:42:30.094Z,4.68
2023-04-01T09:45:02.492Z,6.13
2023-04-01T09:47:49.253Z,6.28
